Time;durP1;ratioP1;P1;durP2;ratioP2;P2;SDS_P1;SDS_P2;PMS_P1;PMS_P2;Temp;Humidity;BMP_temperature;BMP_pressure;BME280_temperature;BME280_humidity;BME280_pressure;Samples;Min_cycle;Max_cycle;Signal;HPM_P1;HPM_P2
2023/07/24 00:00:11;;;;;;;3.38;1.88;;;;;;;-141.84;56.44;21680.00;5042505;28;20233;-65
2023/07/24 00:02:40;;;;;;;3.30;2.05;;;;;;;-141.84;56.93;21663.72;5042954;28;20317;-64
2023/07/24 00:05:09;;;;;;;2.10;1.80;;;;;;;-141.84;57.03;21635.25;5045111;28;20300;-65
2023/07/24 00:07:40;;;;;;;2.47;2.10;;;;;;;-141.84;57.52;21631.19;5045261;28;20748;-64
2023/07/24 00:10:08;;;;;;;2.78;1.98;;;;;;;-141.84;57.81;21663.72;5038676;28;20225;-64
2023/07/24 00:12:37;;;;;;;2.72;2.13;;;;;;;-141.84;58.12;21602.72;5019597;28;20284;-64
2023/07/24 00:15:07;;;;;;;2.95;2.00;;;;;;;-141.84;57.94;21614.94;5043596;28;20707;-64
2023/07/24 00:17:36;;;;;;;2.97;2.03;;;;;;;-141.84;58.18;21606.78;5048900;28;20311;-65
2023/07/24 00:20:05;;;;;;;4.32;2.25;;;;;;;-141.84;58.32;21637.28;5064532;28;20594;-65
2023/07/24 00:22:33;;;;;;;2.20;2.00;;;;;;;-141.84;58.51;21606.78;5056884;28;24540;-65
2023/07/24 00:25:05;;;;;;;2.20;2.00;;;;;;;-141.84;58.54;21590.53;5064246;28;20282;-64
2023/07/24 00:27:34;;;;;;;2.75;1.90;;;;;;;-141.84;58.75;21578.31;5064488;28;20252;-64
2023/07/24 00:30:02;;;;;;;2.30;2.10;;;;;;;-141.84;59.08;21600.69;5064281;28;20684;-65
2023/07/24 00:32:31;;;;;;;2.38;2.00;;;;;;;-141.84;59.64;21558.00;5056110;28;20356;-63
2023/07/24 00:34:59;;;;;;;1.95;1.75;;;;;;;-141.84;59.56;21564.09;5063953;28;20575;-64
2023/07/24 00:37:28;;;;;;;1.83;1.73;;;;;;;-141.84;59.41;21549.84;5064420;28;20688;-64
2023/07/24 00:39:56;;;;;;;2.20;2.00;;;;;;;-141.84;59.50;21578.31;5064180;28;20324;-64
2023/07/24 00:42:26;;;;;;;2.53;2.28;;;;;;;-141.84;59.82;21555.97;5053530;28;20689;-64
2023/07/24 00:44:54;;;;;;;2.67;2.13;;;;;;;-141.84;60.00;21533.59;5044128;28;20311;-64
2023/07/24 00:47:23;;;;;;;2.15;1.95;;;;;;;-141.84;59.81;21566.13;5043020;28;20331;-64
2023/07/24 00:49:52;;;;;;;2.63;2.10;;;;;;;-141.84;60.21;21541.72;5043770;28;20233;-64
2023/07/24 00:52:20;;;;;;;2.75;1.88;;;;;;;-141.84;60.14;21529.53;5035884;28;20251;-65
2023/07/24 00:54:50;;;;;;;2.30;2.10;;;;;;;-141.84;60.17;21551.91;5043968;28;20315;-64
2023/07/24 00:57:19;;;;;;;2.75;2.30;;;;;;;-141.84;60.19;21503.09;5043738;28;20232;-65
2023/07/24 00:59:49;;;;;;;3.22;2.20;;;;;;;-141.84;60.10;21551.91;5043197;28;20233;-65
2023/07/24 01:02:18;;;;;;;2.28;1.95;;;;;;;-141.84;60.42;21535.63;5032834;28;20240;-67
2023/07/24 01:04:46;;;;;;;3.08;2.03;;;;;;;-141.84;60.76;21521.41;5043365;28;20304;-65
2023/07/24 01:07:16;;;;;;;2.85;2.10;;;;;;;-141.84;60.92;21513.25;5030070;28;20233;-64
2023/07/24 01:09:47;;;;;;;2.15;1.95;;;;;;;-141.84;60.65;21541.72;5023422;28;20806;-64
2023/07/24 01:12:23;;;;;;;2.97;2.08;;;;;;;-141.84;60.89;21507.16;5015763;28;20315;-65
2023/07/24 01:15:02;;;;;;;3.15;1.98;;;;;;;-141.84;60.24;21562.06;5023794;28;20324;-64
2023/07/24 01:17:34;;;;;;;2.83;1.80;;;;;;;-141.84;60.40;21539.69;5036152;28;20256;-64
2023/07/24 01:20:05;;;;;;;2.10;1.90;;;;;;;-141.84;60.82;21523.44;5063055;28;20208;-64
2023/07/24 01:22:40;;;;;;;2.15;1.95;;;;;;;-141.84;60.96;21545.78;5055871;28;20715;-64
2023/07/24 01:25:18;;;;;;;3.45;2.17;;;;;;;-141.84;60.94;21531.56;5063053;28;20267;-65
2023/07/24 01:27:48;;;;;;;3.45;2.10;;;;;;;-141.84;61.18;21515.28;5063549;28;20311;-66
2023/07/24 01:30:19;;;;;;;2.38;2.00;;;;;;;-141.84;61.37;21509.19;5055627;28;20239;-64
2023/07/24 01:32:48;;;;;;;2.75;1.90;;;;;;;-141.84;60.92;21515.28;5063183;28;20232;-65
2023/07/24 01:35:17;;;;;;;1.85;1.63;;;;;;;-141.84;61.04;21513.25;5063021;28;20200;-64
2023/07/24 01:37:47;;;;;;;2.88;1.90;;;;;;;-141.84;60.92;21519.34;5063496;28;20201;-65
2023/07/24 01:40:17;;;;;;;3.08;2.00;;;;;;;-141.84;60.66;21525.47;5054625;28;20314;-65
2023/07/24 01:42:47;;;;;;;3.28;1.90;;;;;;;-141.84;60.31;21547.81;5058415;28;20608;-65
2023/07/24 01:45:15;;;;;;;2.28;2.08;;;;;;;-141.84;60.43;21553.94;5042788;28;20229;-65
2023/07/24 01:47:44;;;;;;;2.40;1.83;;;;;;;-141.84;60.96;21533.59;5046012;28;20261;-65
2023/07/24 01:50:12;;;;;;;2.45;2.10;;;;;;;-141.84;61.59;21517.31;5059221;28;20474;-64
2023/07/24 01:52:41;;;;;;;2.45;2.25;;;;;;;-141.84;61.34;21490.91;5063410;28;20662;-64
2023/07/24 01:55:10;;;;;;;1.92;1.73;;;;;;;-141.84;61.55;21521.41;5062534;28;20239;-65
2023/07/24 01:57:38;;;;;;;2.00;1.88;;;;;;;-141.84;61.69;21484.78;5062508;28;20239;-65
2023/07/24 02:00:09;;;;;;;2.40;2.20;;;;;;;-141.84;61.43;21509.19;5045276;28;20248;-66
2023/07/24 02:02:38;;;;;;;1.90;1.80;;;;;;;-141.84;61.49;21468.53;5032976;28;20733;-64
2023/07/24 02:05:07;;;;;;;2.28;1.95;;;;;;;-141.84;61.53;21482.75;5022307;28;20206;-65
2023/07/24 02:07:36;;;;;;;2.35;2.15;;;;;;;-141.84;61.34;21505.13;5022969;28;20241;-65
2023/07/24 02:10:05;;;;;;;2.47;1.73;;;;;;;-141.84;61.64;21482.75;5022700;28;20329;-65
2023/07/24 02:12:33;;;;;;;2.15;1.95;;;;;;;-141.84;61.78;21436.00;5014814;28;20280;-64
2023/07/24 02:15:02;;;;;;;5.53;2.53;;;;;;;-141.84;60.98;21462.44;5020830;28;20229;-64
2023/07/24 02:17:32;;;;;;;2.20;2.00;;;;;;;-141.84;60.89;21468.53;5034329;28;20731;-66
2023/07/24 02:20:00;;;;;;;2.20;2.00;;;;;;;-141.84;60.42;21464.47;5061853;28;20266;-64
2023/07/24 02:22:29;;;;;;;3.45;2.20;;;;;;;-141.84;60.31;21499.03;5054668;28;20258;-64
2023/07/24 02:24:57;;;;;;;4.07;2.55;;;;;;;-141.84;60.14;21521.41;5061987;28;20232;-65
2023/07/24 02:27:27;;;;;;;4.95;2.47;;;;;;;-141.84;60.17;21484.78;5062530;28;20232;-64
2023/07/24 02:29:56;;;;;;;3.42;2.90;;;;;;;-141.84;59.32;21539.69;5062309;28;20277;-64
2023/07/24 02:32:24;;;;;;;3.47;2.35;;;;;;;-141.84;59.61;21525.47;5054368;28;20243;-64
2023/07/24 02:34:54;;;;;;;2.58;2.35;;;;;;;-141.84;60.04;21549.84;5062394;28;20282;-65
2023/07/24 02:37:23;;;;;;;4.72;2.55;;;;;;;-141.84;60.30;21497.00;5063322;28;20681;-64
2023/07/24 02:39:53;;;;;;;2.83;2.20;;;;;;;-141.84;60.66;21442.09;5057987;28;20225;-65
2023/07/24 02:42:21;;;;;;;3.10;2.60;;;;;;;-141.84;60.70;21448.19;5034610;28;20304;-65
2023/07/24 02:44:50;;;;;;;5.80;3.00;;;;;;;-141.84;60.95;21438.03;5042284;28;20233;-65
2023/07/24 02:47:18;;;;;;;5.13;2.85;;;;;;;-141.84;60.73;21431.94;5041700;28;20237;-64
2023/07/24 02:49:47;;;;;;;4.40;3.03;;;;;;;-141.84;60.87;21433.97;5062228;28;20247;-65
2023/07/24 02:52:17;;;;;;;4.22;2.88;;;;;;;-141.84;60.32;21423.81;5054141;28;20615;-64
2023/07/24 02:54:45;;;;;;;4.95;2.95;;;;;;;-141.84;60.19;21438.03;5061706;28;20235;-64
2023/07/24 02:57:14;;;;;;;4.57;3.13;;;;;;;-141.84;59.86;21456.34;5062350;28;20230;-65
2023/07/24 02:59:42;;;;;;;5.30;2.95;;;;;;;-141.84;59.69;21460.41;5047820;28;20252;-64
2023/07/24 03:02:11;;;;;;;5.05;3.17;;;;;;;-141.84;60.01;21464.47;5040929;28;20211;-66
2023/07/24 03:04:39;;;;;;;4.05;2.92;;;;;;;-141.84;60.13;21466.50;5039905;28;20806;-64
2023/07/24 03:07:08;;;;;;;2.80;2.53;;;;;;;-141.84;60.37;21450.22;5046612;28;20237;-64
2023/07/24 03:09:37;;;;;;;3.45;2.92;;;;;;;-141.84;60.74;21421.75;5046179;28;20237;-64
2023/07/24 03:12:06;;;;;;;4.20;2.70;;;;;;;-141.84;61.15;21413.63;5046075;28;20233;-65
2023/07/24 03:14:35;;;;;;;3.90;3.20;;;;;;;-141.84;61.19;21385.16;5037583;28;20244;-65
2023/07/24 03:17:04;;;;;;;3.20;2.90;;;;;;;-141.84;61.95;21370.94;5045428;28;20214;-65
2023/07/24 03:19:32;;;;;;;5.38;3.05;;;;;;;-141.84;62.13;21358.75;5065721;28;20204;-65
2023/07/24 03:22:01;;;;;;;6.43;3.10;;;;;;;-141.84;62.20;21370.94;5065694;28;20263;-66
2023/07/24 03:24:30;;;;;;;4.72;3.15;;;;;;;-141.84;62.21;21391.28;5057862;28;20325;-64
2023/07/24 03:27:00;;;;;;;6.05;3.50;;;;;;;-141.84;61.69;21346.53;5065211;28;20274;-64
2023/07/24 03:29:29;;;;;;;5.57;3.80;;;;;;;-141.84;61.36;21354.66;5065681;28;20308;-65
2023/07/24 03:31:57;;;;;;;3.92;3.40;;;;;;;-141.84;60.73;21383.13;5065739;28;20240;-66
2023/07/24 03:34:26;;;;;;;5.38;3.70;;;;;;;-141.84;59.71;21399.41;5056439;28;20259;-65
2023/07/24 03:36:54;;;;;;;4.72;3.55;;;;;;;-141.84;60.09;21399.41;5054788;28;20291;-66
2023/07/24 03:39:23;;;;;;;5.68;3.15;;;;;;;-141.84;59.90;21395.34;5045082;28;20323;-65
2023/07/24 03:41:51;;;;;;;3.38;3.08;;;;;;;-141.84;59.61;21419.72;5045375;28;20683;-64
2023/07/24 03:44:21;;;;;;;5.10;3.47;;;;;;;-141.84;59.46;21405.50;5037049;28;20760;-65
2023/07/24 03:46:49;;;;;;;5.50;3.42;;;;;;;-141.84;59.72;21438.03;5044724;28;20259;-65
2023/07/24 03:49:18;;;;;;;3.67;3.30;;;;;;;-141.84;59.35;21415.66;5060698;28;20598;-65
2023/07/24 03:51:46;;;;;;;3.65;3.15;;;;;;;-141.84;59.29;21409.56;5065148;28;20256;-65
2023/07/24 03:54:15;;;;;;;4.63;3.17;;;;;;;-141.84;58.27;21509.19;5056621;28;20260;-64
2023/07/24 03:56:43;;;;;;;4.57;3.50;;;;;;;-141.84;57.95;21501.06;5025239;28;20253;-65
2023/07/24 03:59:12;;;;;;;4.28;3.30;;;;;;;-141.84;57.91;21509.19;5040247;28;20684;-65
2023/07/24 04:01:42;;;;;;;4.20;3.60;;;;;;;-141.84;57.48;21537.66;5045238;28;20652;-66
2023/07/24 04:04:10;;;;;;;5.28;3.60;;;;;;;-141.84;57.35;21529.53;5044491;28;20647;-63
2023/07/24 04:06:39;;;;;;;4.20;3.30;;;;;;;-141.84;56.02;21582.38;5041658;28;20317;-65
2023/07/24 04:09:07;;;;;;;4.95;3.10;;;;;;;-141.84;56.45;21588.50;5044843;28;20241;-63
2023/07/24 04:11:38;;;;;;;6.50;3.22;;;;;;;-141.84;56.72;21568.16;5044819;28;20260;-62
2023/07/24 04:14:06;;;;;;;4.32;2.92;;;;;;;-141.84;56.27;21586.47;5043994;28;20227;-62
2023/07/24 04:16:35;;;;;;;5.22;3.42;;;;;;;-141.84;56.54;21553.94;5035426;28;20728;-63
2023/07/24 04:19:05;;;;;;;4.40;2.85;;;;;;;-141.84;56.54;21562.06;5044360;28;20290;-62
2023/07/24 04:21:34;;;;;;;4.60;3.20;;;;;;;-141.84;56.32;21578.31;5045153;28;20611;-62
2023/07/24 04:24:02;;;;;;;4.05;3.05;;;;;;;-141.84;56.37;21580.34;5044217;28;20260;-62
2023/07/24 04:26:31;;;;;;;6.18;3.70;;;;;;;-141.84;56.54;21608.81;5028986;28;20988;-60
2023/07/24 04:29:00;;;;;;;3.35;3.05;;;;;;;-141.84;56.63;21592.56;5044949;28;20217;-63
2023/07/24 04:31:29;;;;;;;3.85;3.30;;;;;;;-141.84;56.11;21608.81;5044844;28;20213;-60
2023/07/24 04:33:57;;;;;;;4.28;3.33;;;;;;;-141.84;56.55;21619.00;5044208;28;20233;-61
2023/07/24 04:36:27;;;;;;;3.65;3.08;;;;;;;-141.84;56.53;21639.31;5035796;28;20337;-63
2023/07/24 04:38:56;;;;;;;4.38;3.40;;;;;;;-141.84;55.97;21682.03;5044330;28;20253;-61
2023/07/24 04:41:25;;;;;;;3.38;3.08;;;;;;;-141.84;56.19;21716.59;5043881;28;20264;-62
2023/07/24 04:43:53;;;;;;;4.07;3.15;;;;;;;-141.84;55.61;21675.94;5043303;28;20288;-61
2023/07/24 04:46:22;;;;;;;3.10;2.80;;;;;;;-141.84;55.78;21702.34;5036153;28;20235;-61
2023/07/24 04:48:50;;;;;;;4.10;3.25;;;;;;;-141.84;55.89;21720.66;5056191;28;20283;-62
2023/07/24 04:51:19;;;;;;;3.42;3.13;;;;;;;-141.84;55.54;21708.47;5051788;28;20309;-63
2023/07/24 04:53:49;;;;;;;3.15;2.72;;;;;;;-141.84;55.48;21749.13;5023218;28;20280;-62
2023/07/24 04:56:17;;;;;;;4.97;3.40;;;;;;;-141.84;55.12;21761.31;5016130;28;20206;-63
2023/07/24 04:58:46;;;;;;;4.97;3.10;;;;;;;-141.84;54.10;21836.56;5036012;28;20209;-62
2023/07/24 05:01:14;;;;;;;4.13;3.17;;;;;;;-141.84;53.18;22001.28;5043263;28;20260;-61
2023/07/24 05:03:43;;;;;;;3.38;3.00;;;;;;;-141.84;50.21;22397.81;5043563;28;20221;-62
2023/07/24 05:06:11;;;;;;;3.95;3.25;;;;;;;-141.84;45.75;22875.78;5041678;28;20261;-61
2023/07/24 05:08:40;;;;;;;4.18;3.38;;;;;;;-141.84;42.82;23416.84;5043095;28;20312;-62
2023/07/24 05:11:09;;;;;;;4.22;2.92;;;;;;;-141.84;39.70;23899.00;5043734;28;20264;-62
2023/07/24 05:13:38;;;;;;;3.72;3.25;;;;;;;-141.84;38.37;24141.09;5043361;28;20307;-62
2023/07/24 05:16:06;;;;;;;4.05;3.50;;;;;;;-141.84;37.82;24259.09;5043475;28;20233;-61
2023/07/24 05:18:35;;;;;;;3.80;3.50;;;;;;;-141.84;36.66;24578.56;5035049;28;20291;-62
2023/07/24 05:21:06;;;;;;;3.53;3.15;;;;;;;-141.84;35.42;24914.31;5043354;28;20232;-62
2023/07/24 05:23:34;;;;;;;6.32;3.08;;;;;;;-141.84;34.12;25193.13;5043609;28;20249;-62
2023/07/24 05:26:04;;;;;;;3.80;3.40;;;;;;;-141.84;34.66;25064.94;5043293;28;20582;-62
2023/07/24 05:28:34;;;;;;;5.78;3.83;;;;;;;-141.84;35.44;24531.75;5035584;28;20763;-61
2023/07/24 05:31:03;;;;;;;5.20;3.72;;;;;;;-141.84;36.74;24165.50;5043062;28;20225;-62
2023/07/24 05:33:33;;;;;;;5.32;3.70;;;;;;;-141.84;37.07;23982.41;5042884;28;20326;-62
2023/07/24 05:36:01;;;;;;;5.28;3.80;;;;;;;-141.84;38.13;23764.72;5043077;28;20287;-61
2023/07/24 05:38:30;;;;;;;4.75;3.63;;;;;;;-141.84;39.68;23406.66;5034299;28;20253;-62
2023/07/24 05:40:59;;;;;;;5.43;3.47;;;;;;;-141.84;41.12;23142.22;5043082;28;20241;-62
2023/07/24 05:43:28;;;;;;;4.72;3.58;;;;;;;-141.84;42.19;22949.00;5043195;28;20289;-62
2023/07/24 05:46:00;;;;;;;4.47;3.65;;;;;;;-141.84;42.56;22885.94;5043057;28;20318;-61
2023/07/24 05:48:28;;;;;;;4.18;3.72;;;;;;;-141.84;42.54;22883.91;5020321;28;20236;-63
2023/07/24 05:50:57;;;;;;;3.97;3.38;;;;;;;-141.84;43.24;22806.63;5022782;28;20683;-62
2023/07/24 05:53:25;;;;;;;4.28;3.70;;;;;;;-141.84;43.78;22808.66;5023097;28;20309;-62
2023/07/24 05:56:00;;;;;;;5.28;3.80;;;;;;;-141.84;43.83;22719.16;5023119;28;20229;-62
2023/07/24 05:58:29;;;;;;;4.10;3.60;;;;;;;-141.84;44.38;22772.03;5022613;28;20289;-62
2023/07/24 06:00:59;;;;;;;5.90;3.90;;;;;;;-141.84;44.79;22660.19;5042093;28;20236;-62
2023/07/24 06:03:27;;;;;;;5.75;3.60;;;;;;;-141.84;44.00;22719.16;5042102;28;20271;-61
2023/07/24 06:05:56;;;;;;;9.50;4.30;;;;;;;-141.84;44.79;22713.06;5042051;28;20240;-62
2023/07/24 06:08:25;;;;;;;5.32;3.80;;;;;;;-141.84;44.79;22735.44;5034843;28;20786;-62
2023/07/24 06:10:53;;;;;;;5.43;3.50;;;;;;;-141.84;44.64;22757.81;5036765;28;20662;-61
2023/07/24 06:13:22;;;;;;;4.03;3.60;;;;;;;-141.84;44.47;22753.75;5042665;28;20315;-60
2023/07/24 06:15:51;;;;;;;4.22;3.80;;;;;;;-141.84;44.19;22810.69;5042742;28;20303;-62
2023/07/24 06:18:21;;;;;;;5.50;3.75;;;;;;;-141.84;44.28;22845.25;5034001;28;20236;-62
2023/07/24 06:20:53;;;;;;;4.85;3.63;;;;;;;-141.84;43.68;22843.22;5042192;28;20786;-62
2023/07/24 06:23:21;;;;;;;4.65;3.92;;;;;;;-141.84;43.89;22865.59;5042353;28;20308;-63
2023/07/24 06:25:51;;;;;;;11.73;3.60;;;;;;;-141.84;42.85;22881.88;5043125;28;20665;-61
2023/07/24 06:28:20;;;;;;;4.75;3.30;;;;;;;-141.84;42.31;22869.66;5033150;28;20748;-61
2023/07/24 06:30:48;;;;;;;5.28;3.65;;;;;;;-141.84;43.30;22851.38;5039485;28;20708;-63
2023/07/24 06:33:17;;;;;;;3.55;3.25;;;;;;;-141.84;42.05;22922.56;5039271;28;20222;-65
2023/07/24 06:35:46;;;;;;;4.30;3.50;;;;;;;-141.84;42.11;22900.19;5046573;28;20312;-64
2023/07/24 06:38:15;;;;;;;5.18;3.90;;;;;;;-141.84;42.33;22910.34;5033372;28;20229;-62
2023/07/24 06:40:43;;;;;;;4.25;3.30;;;;;;;-141.84;42.21;22920.53;5038648;28;20299;-62
2023/07/24 06:43:12;;;;;;;4.55;3.70;;;;;;;-141.84;41.82;22922.56;5044213;28;20229;-62
2023/07/24 06:45:40;;;;;;;5.50;3.80;;;;;;;-141.84;42.00;22957.13;5038453;28;20312;-63
2023/07/24 06:48:09;;;;;;;3.90;3.25;;;;;;;-141.84;41.40;23010.00;5038554;28;20225;-62
2023/07/24 06:50:37;;;;;;;4.50;3.50;;;;;;;-141.84;41.60;22997.81;5042599;28;20327;-62
2023/07/24 06:53:07;;;;;;;3.60;3.30;;;;;;;-141.84;41.25;22938.81;5056866;28;20611;-62
2023/07/24 06:55:36;;;;;;;4.40;3.60;;;;;;;-141.84;41.36;22961.19;5053190;28;20589;-64
2023/07/24 06:58:04;;;;;;;5.72;3.60;;;;;;;-141.84;41.40;22963.22;5056389;28;20239;-61
2023/07/24 07:00:33;;;;;;;3.92;3.40;;;;;;;-141.84;41.03;22981.53;5040621;28;20314;-60
2023/07/24 07:03:01;;;;;;;5.18;3.65;;;;;;;-141.84;41.10;23075.09;5051155;28;20225;-60
2023/07/24 07:05:32;;;;;;;4.13;3.40;;;;;;;-141.84;39.89;23189.00;5047798;28;20240;-62
2023/07/24 07:08:00;;;;;;;3.55;3.25;;;;;;;-141.84;39.60;23292.75;5048410;28;20218;-62
2023/07/24 07:10:32;;;;;;;4.00;3.60;;;;;;;-141.84;39.45;23321.22;5045776;28;20237;-63
2023/07/24 07:13:01;;;;;;;3.85;3.47;;;;;;;-141.84;39.70;23329.38;5055015;28;20225;-61
2023/07/24 07:15:29;;;;;;;4.40;3.72;;;;;;;-141.84;39.68;23363.94;5046675;28;20295;-63
2023/07/24 07:17:58;;;;;;;4.57;3.30;;;;;;;-141.84;39.99;23296.81;5049075;28;20712;-65
2023/07/24 07:20:26;;;;;;;7.50;3.40;;;;;;;-141.84;39.96;23227.66;5040566;28;20312;-61
2023/07/24 07:22:55;;;;;;;5.70;3.28;;;;;;;-141.84;39.85;23215.47;5050513;28;20205;-60
2023/07/24 07:25:23;;;;;;;5.20;4.07;;;;;;;-141.84;39.96;23195.13;5048602;28;20557;-63
2023/07/24 07:27:53;;;;;;;4.38;3.60;;;;;;;-141.84;40.21;23152.41;5047144;28;20676;-62
2023/07/24 07:30:21;;;;;;;5.10;3.95;;;;;;;-141.84;40.04;23209.34;5046377;28;20646;-62
2023/07/24 07:32:50;;;;;;;4.60;4.18;;;;;;;-141.84;39.99;23264.28;5049259;28;20642;-62
2023/07/24 07:35:18;;;;;;;4.60;3.30;;;;;;;-141.84;39.93;23227.66;5048879;28;20328;-61
2023/07/24 07:37:47;;;;;;;4.25;3.72;;;;;;;-141.84;40.04;23286.66;5050699;28;20292;-63
2023/07/24 07:40:15;;;;;;;4.25;3.65;;;;;;;-141.84;39.85;23317.16;5036732;28;20248;-64
2023/07/24 07:42:45;;;;;;;4.80;4.32;;;;;;;-141.84;38.82;23488.03;5053839;28;20229;-63
2023/07/24 07:45:15;;;;;;;3.97;3.58;;;;;;;-141.84;38.71;23502.28;5042187;28;20252;-64
2023/07/24 07:47:43;;;;;;;4.78;3.67;;;;;;;-141.84;38.44;23404.63;5041838;28;20264;-62
2023/07/24 07:50:12;;;;;;;4.20;3.80;;;;;;;-141.84;38.86;23402.59;5039633;28;20814;-62
2023/07/24 07:52:41;;;;;;;5.80;3.83;;;;;;;-141.84;38.79;23435.16;5042568;28;20241;-63
2023/07/24 07:55:10;;;;;;;4.65;4.03;;;;;;;-141.84;39.25;23471.78;5041640;28;20264;-64
2023/07/24 07:57:39;;;;;;;4.30;3.67;;;;;;;-141.84;38.15;23583.66;5041456;28;20286;-63
2023/07/24 08:00:09;;;;;;;4.07;3.67;;;;;;;-141.84;38.19;23579.59;5041744;28;20264;-62
2023/07/24 08:02:39;;;;;;;5.00;3.92;;;;;;;-141.84;38.56;23441.25;5034140;28;20718;-64
2023/07/24 08:05:09;;;;;;;5.15;4.20;;;;;;;-141.84;39.19;23471.78;5034608;28;20605;-63
2023/07/24 08:07:47;;;;;;;4.10;3.70;;;;;;;-141.84;38.82;23469.72;5039818;28;20211;-63
2023/07/24 08:10:16;;;;;;;4.38;3.97;;;;;;;-141.84;38.27;23567.38;5034028;28;20243;-63
2023/07/24 08:12:45;;;;;;;4.57;3.88;;;;;;;-141.84;38.37;23514.50;5040896;28;20266;-64
2023/07/24 08:15:13;;;;;;;5.28;4.15;;;;;;;-141.84;38.25;23528.72;5041183;28;20353;-63
2023/07/24 08:17:43;;;;;;;6.60;4.28;;;;;;;-141.84;38.44;23469.72;5041944;28;20229;-60
2023/07/24 08:20:12;;;;;;;4.88;3.97;;;;;;;-141.84;38.60;23386.34;5038737;28;20209;-64
2023/07/24 08:22:41;;;;;;;4.32;3.30;;;;;;;-141.84;38.85;23388.38;5041680;28;20202;-64
2023/07/24 08:25:09;;;;;;;5.10;4.20;;;;;;;-141.84;38.87;23394.47;5040937;28;20229;-65
2023/07/24 08:27:38;;;;;;;4.15;3.75;;;;;;;-141.84;38.94;23311.06;5040372;28;20797;-68
2023/07/24 08:30:26;;;;;;;7.40;4.13;;;;;;;-141.84;38.80;23351.75;5029856;28;20791;-69
2023/07/24 08:32:56;;;;;;;5.32;3.97;;;;;;;-141.84;38.97;23437.19;5040949;28;20251;-71
2023/07/24 08:35:25;;;;;;;4.15;3.72;;;;;;;-141.84;38.80;23506.34;5040871;28;20221;-67
2023/07/24 08:37:54;;;;;;;4.63;3.83;;;;;;;-141.84;38.49;23549.06;5022749;28;20214;-68
2023/07/24 08:40:22;;;;;;;5.57;4.00;;;;;;;-141.84;37.69;23652.81;5030189;28;20715;-69
2023/07/24 08:42:52;;;;;;;5.55;4.07;;;;;;;-141.84;37.74;23579.59;5040957;28;20585;-68
2023/07/24 08:45:21;;;;;;;5.72;4.30;;;;;;;-141.84;38.68;23457.53;5042150;28;20295;-68
2023/07/24 08:47:50;;;;;;;4.93;3.88;;;;;;;-141.84;38.64;23439.22;5042872;28;20237;-69
2023/07/24 08:50:21;;;;;;;5.75;4.05;;;;;;;-141.84;39.29;23388.38;5035360;28;20233;-66
2023/07/24 08:52:50;;;;;;;5.40;3.80;;;;;;;-141.84;39.04;23404.63;5044109;28;20643;-64
2023/07/24 08:55:19;;;;;;;4.90;4.18;;;;;;;-141.84;39.13;23429.03;5043306;28;20241;-65
2023/07/24 08:57:47;;;;;;;5.55;3.85;;;;;;;-141.84;38.53;23459.56;5041247;28;20655;-64
2023/07/24 09:00:17;;;;;;;5.45;3.65;;;;;;;-141.84;38.62;23457.53;5035104;28;20712;-63
2023/07/24 09:02:45;;;;;;;4.47;4.07;;;;;;;-141.84;38.39;23504.31;5042416;28;20233;-67
2023/07/24 09:05:15;;;;;;;8.38;4.20;;;;;;;-141.84;37.91;23608.06;5043014;28;20217;-69
2023/07/24 09:07:46;;;;;;;5.25;3.67;;;;;;;-141.84;38.06;23612.13;5040703;28;20688;-68
2023/07/24 09:10:15;;;;;;;4.47;4.07;;;;;;;-141.84;37.74;23634.50;5033741;28;20239;-68
2023/07/24 09:12:45;;;;;;;6.13;4.03;;;;;;;-141.84;37.02;23783.03;5043234;28;20237;-68
2023/07/24 09:15:13;;;;;;;4.82;3.95;;;;;;;-141.84;36.86;23829.81;5042788;28;20239;-65
2023/07/24 09:17:50;;;;;;;5.05;4.05;;;;;;;-141.84;36.63;23949.84;5041141;28;20763;-64
2023/07/24 09:20:19;;;;;;;4.72;4.13;;;;;;;-141.84;36.25;24004.78;5036864;28;20240;-66
2023/07/24 09:23:01;;;;;;;5.15;4.20;;;;;;;-141.84;36.58;23927.47;5041279;28;20758;-63
2023/07/24 09:25:45;;;;;;;3.78;3.42;;;;;;;-141.84;36.14;23978.34;5040437;28;20288;-65
2023/07/24 09:28:16;;;;;;;4.78;4.07;;;;;;;-141.84;36.78;24059.72;5045659;28;20220;-64
2023/07/24 09:30:54;;;;;;;4.95;4.07;;;;;;;-141.84;36.27;24135.00;5039743;28;20236;-67
2023/07/24 09:33:23;;;;;;;4.80;4.30;;;;;;;-141.84;35.91;24181.78;5044076;28;20213;-67
2023/07/24 09:36:02;;;;;;;5.03;3.95;;;;;;;-141.84;35.52;24336.44;5049650;28;20667;-67
2023/07/24 09:38:32;;;;;;;4.95;4.20;;;;;;;-141.84;35.06;24425.97;5038632;28;20231;-64
2023/07/24 09:41:03;;;;;;;4.13;3.72;;;;;;;-141.84;35.60;24423.91;5048540;28;20213;-66
2023/07/24 09:43:32;;;;;;;4.28;3.88;;;;;;;-141.84;35.36;24407.66;5045375;28;20241;-67
2023/07/24 09:46:09;;;;;;;5.85;4.50;;;;;;;-141.84;35.23;24389.34;5042915;28;20748;-67
2023/07/24 09:48:39;;;;;;;5.78;4.30;;;;;;;-141.84;35.08;24342.53;5042850;28;20224;-66
2023/07/24 09:51:32;;;;;;;4.80;4.03;;;;;;;-141.84;35.97;24130.94;5036015;28;20234;-67
2023/07/24 09:54:14;;;;;;;6.90;4.18;;;;;;;-141.84;35.55;24281.50;5026216;28;20253;-67
2023/07/24 09:56:44;;;;;;;5.55;4.50;;;;;;;-141.84;35.87;24171.63;5037092;28;20233;-67
2023/07/24 09:59:24;;;;;;;8.38;4.65;;;;;;;-141.84;36.90;24019.03;5039267;28;20310;-66
2023/07/24 10:01:53;;;;;;;5.43;4.50;;;;;;;-141.84;36.29;24047.50;5039609;28;20213;-66
2023/07/24 10:04:24;;;;;;;7.28;4.85;;;;;;;-141.84;36.75;23933.56;5031524;28;20731;-64
2023/07/24 10:06:53;;;;;;;6.38;4.97;;;;;;;-141.84;36.43;24031.22;5038710;28;20232;-65
2023/07/24 10:09:23;;;;;;;6.78;4.85;;;;;;;-141.84;36.51;23990.53;5039739;28;20324;-65
2023/07/24 10:11:55;;;;;;;5.75;5.10;;;;;;;-141.84;36.46;23933.56;5040364;28;20232;-65
2023/07/24 10:14:25;;;;;;;5.53;4.63;;;;;;;-141.84;37.11;23762.69;5032005;28;20241;-65
2023/07/24 10:16:55;;;;;;;7.95;5.32;;;;;;;-141.84;37.08;23929.50;5039694;28;20237;-64
2023/07/24 10:19:24;;;;;;;6.40;5.53;;;;;;;-141.84;37.12;23982.41;5039370;28;20233;-66
2023/07/24 10:21:53;;;;;;;6.13;5.35;;;;;;;-141.84;36.94;24010.88;5039565;28;20328;-64
2023/07/24 10:24:30;;;;;;;6.75;5.18;;;;;;;-141.84;36.80;23917.28;5031656;28;20253;-65
2023/07/24 10:27:09;;;;;;;7.05;5.53;;;;;;;-141.84;37.00;23992.56;5039566;28;20239;-65
2023/07/24 10:29:38;;;;;;;5.88;5.25;;;;;;;-141.84;37.45;23992.56;5039477;28;20339;-66
2023/07/24 10:32:18;;;;;;;6.43;5.35;;;;;;;-141.84;37.01;24053.63;5036850;28;20213;-65
2023/07/24 10:34:57;;;;;;;5.78;5.18;;;;;;;-141.84;36.79;24027.16;5019665;28;20684;-65
2023/07/24 10:37:34;;;;;;;6.03;5.43;;;;;;;-141.84;37.16;24076.00;5042123;28;20236;-65
2023/07/24 10:40:05;;;;;;;7.60;5.50;;;;;;;-141.84;37.09;24027.16;5059602;28;20346;-66
2023/07/24 10:42:34;;;;;;;8.00;5.72;;;;;;;-141.84;37.33;23994.59;5048815;28;20743;-66
2023/07/24 10:45:06;;;;;;;10.25;5.47;;;;;;;-141.84;37.19;24092.28;5039491;28;20271;-65
2023/07/24 10:47:34;;;;;;;6.90;5.30;;;;;;;-141.84;37.43;24080.06;5038969;28;20977;-66
2023/07/24 10:50:03;;;;;;;6.57;5.80;;;;;;;-141.84;37.05;24200.09;5038993;28;20805;-66
2023/07/24 10:52:32;;;;;;;8.13;5.70;;;;;;;-141.84;36.91;24161.44;5044386;28;20262;-66
2023/07/24 10:55:03;;;;;;;6.32;5.70;;;;;;;-141.84;36.75;24242.84;5060568;28;20680;-66
2023/07/24 10:57:33;;;;;;;6.47;5.85;;;;;;;-141.84;36.63;24271.31;5060780;28;20281;-64
2023/07/24 11:00:01;;;;;;;6.05;5.10;;;;;;;-141.84;36.92;24307.94;5044474;28;20355;-65
2023/07/24 11:02:31;;;;;;;8.45;6.38;;;;;;;-141.84;36.51;24330.31;5033432;28;20365;-66
2023/07/24 11:05:00;;;;;;;8.63;5.78;;;;;;;-141.84;36.54;24238.75;5041470;28;20617;-66
2023/07/24 11:07:34;;;;;;;6.45;5.85;;;;;;;-141.84;37.20;24255.03;5042180;28;20669;-65
2023/07/24 11:10:04;;;;;;;6.78;6.00;;;;;;;-141.84;36.78;24200.09;5041550;28;20715;-65
2023/07/24 11:12:32;;;;;;;7.07;5.80;;;;;;;-141.84;37.64;24171.63;5033609;28;20315;-66
2023/07/24 11:15:01;;;;;;;6.50;5.88;;;;;;;-141.84;37.22;24291.66;5041974;28;20240;-66
2023/07/24 11:17:37;;;;;;;7.88;5.97;;;;;;;-141.84;37.69;24110.59;5040751;28;20241;-65
2023/07/24 11:20:11;;;;;;;7.03;5.88;;;;;;;-141.84;38.25;24004.78;5041712;28;20259;-66
2023/07/24 11:22:40;;;;;;;8.10;6.43;;;;;;;-141.84;37.96;23925.44;5038839;28;20754;-65
2023/07/24 11:25:11;;;;;;;6.95;6.07;;;;;;;-141.84;38.04;24021.06;5035312;28;20226;-64
2023/07/24 11:27:43;;;;;;;7.72;6.70;;;;;;;-141.84;38.24;23929.50;5025527;28;20316;-65